Sandy Lake Airport
CZSJ : now visible

Airfield :











YOU CAN JOIN US ON...

 
LOGIN :

Register | Disclaimer

   EN    FR    IT 

 









Legend :    VFR   Marginal VFR   IFR   Intensive IFR   Very Intensive IFR
Visi :
Ceiling :
>= 8 km
>= 3000ft
5 to 8 km
1000 to 3000 ft
1500m to 5 km
500 to 1000 ft
800 to 1500m
200 to 500 ft
< 800m
< 200 ft
Symbols :   Thunderstorms  Fog  Heavy snow  Heavy precipitations  Wind > 20 kt






- Airport Elevation : 951 ft
- IATA code : ZSJ


CZSJ - Sandy Lake

CURRENT METAR :
  • 080700Z AUTO 32013G19KT 9SM SCT017 M20/M22 A2979 RMK SLP118

EXPIRED METARs :
  • 080635Z AUTO 32013KT 9SM SCT019 M19/M21 A2978 RMK SLP111
  • 080600Z AUTO 33011KT 9SM BKN017 OVC190 M18/M20 A2976 RMK SLP104
  • 080548Z AUTO 35009G15KT 320V020 9SM BKN017 BKN190 M18/M20 A2975 RMK SLP103
  • 080517Z AUTO 34013G20KT 9SM SCT015 BKN160 BKN180 M17/M20 A2974 RMK SLP098
  • 080504Z AUTO 33012G17KT 9SM BKN015 BKN160 OVC180 M17/M19 A2973 RMK PRESRR SLP094
  • 080456Z AUTO 33012G17KT 9SM SCT017 OVC180 M16/M18 A2972 RMK SLP091

Expired Forecast.



MET'MAP, your aeronautical weather chart ! - Copyright ORBIFLY December 2007 - Disclaimer

ORBIFLY MET'MAP TEAM :

Programming & Development : Alexandra Zaïnal
Concept & original design : Baudouin d'Aumeries
Assistance for programming : Marc-Olivier Méhu
Technical & hardware support : Manuel Goepfert

Contact : metmap@orbifly.com




SOURCES & CREDITS :

   NOAA       Earth
Advisory